createdAt,value
2022-08-17T00:11:33.964Z,21.48
2022-08-17T00:12:43.070Z,21.48
2022-08-17T00:14:34.256Z,21.41
2022-08-17T00:15:34.084Z,21.46
2022-08-17T00:16:52.613Z,21.41
2022-08-17T00:19:34.210Z,21.43
2022-08-17T00:20:35.078Z,21.38
2022-08-17T00:21:57.922Z,21.34
2022-08-17T00:27:34.459Z,21.31
2022-08-17T00:30:51.316Z,21.31
2022-08-17T00:35:34.899Z,21.38
2022-08-17T00:36:35.335Z,21.38
2022-08-17T00:42:35.319Z,21.37
2022-08-17T00:51:35.395Z,21.53
2022-08-17T00:52:35.712Z,21.55
2022-08-17T00:59:35.634Z,21.58
2022-08-17T01:01:35.958Z,21.68
2022-08-17T01:03:35.756Z,21.62
2022-08-17T01:06:35.651Z,21.51
2022-08-17T01:09:39.966Z,21.56
2022-08-17T01:10:57.619Z,21.56
2022-08-17T01:11:36.994Z,21.48
2022-08-17T01:12:35.808Z,21.45
2022-08-17T01:13:40.800Z,21.46
2022-08-17T01:14:35.868Z,21.34
2022-08-17T01:15:35.903Z,21.30
2022-08-17T01:16:35.931Z,21.33
2022-08-17T01:17:35.961Z,21.31
2022-08-17T01:18:35.988Z,21.40
2022-08-17T01:19:36.022Z,21.52
2022-08-17T01:20:47.910Z,21.48
2022-08-17T01:21:36.082Z,21.53
2022-08-17T01:22:36.111Z,21.55
2022-08-17T01:23:36.144Z,21.53
2022-08-17T01:24:36.174Z,21.46
2022-08-17T01:25:36.206Z,21.52
2022-08-17T01:26:36.235Z,21.51
2022-08-17T01:27:36.265Z,21.51
2022-08-17T01:28:53.741Z,21.41
2022-08-17T01:29:36.327Z,21.48
2022-08-17T01:30:58.000Z,21.37
2022-08-17T01:31:36.388Z,21.34
2022-08-17T01:32:36.417Z,21.30
2022-08-17T01:36:36.955Z,21.27
2022-08-17T01:37:36.588Z,21.18
2022-08-17T01:38:37.021Z,21.19
2022-08-17T01:41:36.998Z,21.21
2022-08-17T01:45:36.826Z,21.03
2022-08-17T01:56:38.377Z,20.98
2022-08-17T01:58:38.340Z,21.09
2022-08-17T02:00:46.901Z,21.11
2022-08-17T02:02:37.553Z,21.11
2022-08-17T02:04:10.793Z,21.09
2022-08-17T02:13:37.882Z,20.82
2022-08-17T02:14:38.118Z,20.81
2022-08-17T02:18:37.820Z,20.79
2022-08-17T02:20:42.664Z,20.79
2022-08-17T02:21:39.244Z,20.75
2022-08-17T02:29:39.577Z,20.58
2022-08-17T02:37:39.727Z,20.37
2022-08-17T02:40:39.822Z,20.34
2022-08-17T02:49:38.755Z,20.35
2022-08-17T02:58:39.755Z,20.16
2022-08-17T03:01:39.144Z,20.15
2022-08-17T03:02:39.151Z,20.11
2022-08-17T03:03:39.181Z,20.08
2022-08-17T03:04:39.211Z,20.07
2022-08-17T03:05:39.254Z,20.05
2022-08-17T03:06:39.689Z,20.02
2022-08-17T03:07:40.214Z,19.90
2022-08-17T03:30:40.037Z,19.63
2022-08-17T05:18:09.797Z,21.93
2022-08-17T05:19:09.828Z,21.90
2022-08-17T05:20:09.857Z,21.97
2022-08-17T05:21:09.891Z,21.99
2022-08-17T05:22:09.919Z,21.99
2022-08-17T05:23:09.951Z,22.04
2022-08-17T06:11:14.039Z,23.21
2022-08-17T06:12:14.329Z,23.28
2022-08-17T06:13:11.478Z,23.35
2022-08-17T06:14:11.928Z,23.55
2022-08-17T06:15:11.542Z,23.67
2022-08-17T06:16:28.221Z,23.97
2022-08-17T06:17:14.221Z,24.12
2022-08-17T06:30:12.012Z,23.94
2022-08-17T06:34:13.060Z,23.92
2022-08-17T06:52:12.697Z,27.31
2022-08-17T06:53:13.144Z,27.45
2022-08-17T06:54:12.976Z,27.37
2022-08-17T06:55:18.171Z,27.28
2022-08-17T06:57:12.860Z,26.97
2022-08-17T07:01:13.453Z,26.74
2022-08-17T07:02:13.633Z,26.50
2022-08-17T07:03:13.053Z,26.42
2022-08-17T07:04:13.102Z,26.31
2022-08-17T07:05:13.124Z,26.30
2022-08-17T07:06:13.157Z,26.30
2022-08-17T07:07:13.185Z,26.22
2022-08-17T07:08:13.223Z,26.34
2022-08-17T07:09:13.260Z,26.27
2022-08-17T07:10:13.290Z,26.34
2022-08-17T07:11:13.318Z,26.19
2022-08-17T07:12:13.355Z,26.00
2022-08-17T07:13:13.386Z,25.94
2022-08-17T07:14:17.150Z,25.85
2022-08-17T07:15:14.868Z,25.66
2022-08-17T07:16:13.488Z,25.52
2022-08-17T07:17:13.518Z,25.45
2022-08-17T07:18:13.552Z,25.45
2022-08-17T07:19:13.581Z,25.49
2022-08-17T07:20:13.617Z,25.52
2022-08-17T07:21:17.346Z,25.51
2022-08-17T07:22:13.684Z,25.63
2022-08-17T07:23:13.714Z,25.69
2022-08-17T07:24:29.701Z,25.76
2022-08-17T07:25:13.780Z,25.93
2022-08-17T07:26:13.815Z,25.91
2022-08-17T07:27:13.846Z,26.12
2022-08-17T07:28:13.881Z,26.23
2022-08-17T07:29:13.911Z,26.49
2022-08-17T07:30:13.945Z,26.61
2022-08-17T07:31:13.977Z,26.74
2022-08-17T07:32:14.013Z,26.75
2022-08-17T07:33:14.043Z,26.76
2022-08-17T07:34:14.077Z,26.75
2022-08-17T07:35:15.293Z,26.71
2022-08-17T07:36:14.147Z,26.82
2022-08-17T07:37:14.177Z,26.78
2022-08-17T07:38:24.857Z,26.71
2022-08-17T07:39:14.242Z,26.57
2022-08-17T07:40:16.218Z,26.53
2022-08-17T07:41:14.310Z,26.44
2022-08-17T07:42:14.341Z,26.57
2022-08-17T07:43:21.778Z,26.61
2022-08-17T07:44:14.408Z,26.64
2022-08-17T07:45:14.439Z,26.69
2022-08-17T07:46:14.474Z,26.67
2022-08-17T08:05:51.025Z,26.71
2022-08-17T08:06:50.250Z,26.79
2022-08-17T08:07:50.635Z,26.84
2022-08-17T08:09:50.546Z,26.81
2022-08-17T08:10:50.377Z,26.72
2022-08-17T08:12:52.762Z,26.26
2022-08-17T08:13:51.288Z,26.27
2022-08-17T08:14:50.711Z,26.27
2022-08-17T08:16:50.578Z,25.91
2022-08-17T08:20:53.723Z,25.74
2022-08-17T08:21:50.947Z,25.81
2022-08-17T08:22:50.771Z,25.75
2022-08-17T08:23:51.520Z,25.70
2022-08-17T08:26:51.606Z,25.45
2022-08-17T08:27:51.373Z,25.47
2022-08-17T08:33:51.136Z,25.12
2022-08-17T08:35:01.594Z,25.07
2022-08-17T08:35:51.195Z,25.08
2022-08-17T08:37:12.690Z,25.11
2022-08-17T08:37:51.345Z,25.08
2022-08-17T08:38:52.190Z,25.07
2022-08-17T08:39:51.760Z,25.11
2022-08-17T08:41:51.592Z,24.94
2022-08-17T08:42:51.620Z,25.04
2022-08-17T08:43:53.174Z,24.90
2022-08-17T08:46:51.549Z,24.69
2022-08-17T08:48:55.813Z,24.64
2022-08-17T08:50:51.671Z,24.59
2022-08-17T08:52:51.733Z,24.51
2022-08-17T08:53:52.277Z,24.55
2022-08-17T08:54:52.004Z,24.56
2022-08-17T08:55:52.433Z,24.58
2022-08-17T08:57:21.588Z,24.69
2022-08-17T08:58:51.923Z,24.69
2022-08-17T09:01:52.054Z,24.70
2022-08-17T09:05:36.411Z,24.69
2022-08-17T09:07:36.082Z,24.82
2022-08-17T09:09:41.315Z,24.75
2022-08-17T09:10:38.723Z,24.77
2022-08-17T09:12:02.560Z,24.92
2022-08-17T09:12:38.789Z,24.85
2022-08-17T09:13:38.818Z,24.94
2022-08-17T09:14:44.945Z,24.90
2022-08-17T09:15:38.993Z,24.94
2022-08-17T09:17:39.159Z,24.82
2022-08-17T09:19:39.003Z,24.87
2022-08-17T09:20:39.037Z,24.93
2022-08-17T09:21:39.064Z,24.83
2022-08-17T09:22:39.098Z,24.92
2022-08-17T09:23:39.127Z,24.92
2022-08-17T09:24:39.160Z,25.01
2022-08-17T09:25:39.192Z,24.92
2022-08-17T09:26:39.224Z,25.05
2022-08-17T09:27:39.264Z,25.07
2022-08-17T09:28:39.302Z,25.04
2022-08-17T09:29:40.242Z,25.01
2022-08-17T09:30:39.364Z,25.01
2022-08-17T09:31:49.118Z,24.97
2022-08-17T09:32:40.235Z,24.93
2022-08-17T09:34:39.489Z,25.05
2022-08-17T09:35:39.727Z,25.01
2022-08-17T09:36:39.552Z,25.01
2022-08-17T09:37:39.999Z,25.01
2022-08-17T09:38:39.820Z,25.08
2022-08-17T09:43:40.891Z,24.92
2022-08-17T09:44:39.803Z,24.85
2022-08-17T09:47:39.895Z,24.90
2022-08-17T09:48:41.236Z,24.74
2022-08-17T09:50:55.529Z,24.80
2022-08-17T09:51:40.030Z,24.69
2022-08-17T09:54:40.882Z,24.69
2022-08-17T09:57:40.419Z,24.54
2022-08-17T10:00:40.821Z,24.32
2022-08-17T10:03:40.604Z,24.36
2022-08-17T10:04:40.639Z,24.37
2022-08-17T10:06:40.696Z,24.56
2022-08-17T10:07:40.936Z,24.55
2022-08-17T10:10:41.907Z,24.82
2022-08-17T10:12:46.476Z,24.90
2022-08-17T10:14:43.766Z,25.02
2022-08-17T10:16:41.623Z,24.93
2022-08-17T10:19:43.933Z,25.19
2022-08-17T10:20:41.138Z,25.26
2022-08-17T10:21:40.970Z,25.27
2022-08-17T10:22:41.712Z,25.39
2022-08-17T10:27:41.162Z,25.86
2022-08-17T10:28:41.390Z,25.93
2022-08-17T10:32:41.518Z,26.03
2022-08-17T10:34:41.985Z,26.03
2022-08-17T10:35:41.623Z,25.96
2022-08-17T10:36:41.643Z,25.91
2022-08-17T10:37:41.484Z,25.71
2022-08-17T10:40:41.778Z,25.84
2022-08-17T10:41:41.813Z,25.96
2022-08-17T10:42:41.835Z,26.15
2022-08-17T10:52:42.372Z,27.93
2022-08-17T10:53:41.980Z,28.41
2022-08-17T10:54:42.016Z,28.54
2022-08-17T10:55:42.045Z,28.95
2022-08-17T10:56:42.080Z,29.02
2022-08-17T10:57:42.112Z,29.03
2022-08-17T10:58:42.146Z,29.11
2022-08-17T10:59:42.184Z,29.05
2022-08-17T11:00:42.287Z,29.35
2022-08-17T11:01:42.244Z,29.33
2022-08-17T11:10:42.548Z,29.38
2022-08-17T11:11:42.580Z,29.50
2022-08-17T11:12:42.617Z,29.92
2022-08-17T11:13:42.649Z,29.95
2022-08-17T11:14:42.683Z,29.73
2022-08-17T11:15:42.718Z,29.38
2022-08-17T11:16:42.770Z,29.23
2022-08-17T11:17:42.799Z,29.11
2022-08-17T11:18:42.840Z,29.06
2022-08-17T11:19:42.869Z,28.80
2022-08-17T11:20:42.903Z,28.80
2022-08-17T11:21:42.933Z,28.57
2022-08-17T11:22:42.956Z,28.36
2022-08-17T11:23:42.989Z,28.24
2022-08-17T11:24:44.661Z,28.30
2022-08-17T11:25:43.058Z,28.41
2022-08-17T11:26:43.092Z,28.39
2022-08-17T11:27:43.126Z,28.46
2022-08-17T11:28:43.163Z,28.42
2022-08-17T11:29:43.195Z,28.58
2022-08-17T11:30:43.584Z,28.64
2022-08-17T11:31:43.481Z,28.57
2022-08-17T11:32:47.717Z,28.60
2022-08-17T11:33:43.330Z,28.30
2022-08-17T11:34:43.372Z,28.05
2022-08-17T11:35:43.400Z,28.08
2022-08-17T11:36:43.435Z,28.17
2022-08-17T11:37:43.474Z,28.16
2022-08-17T11:38:43.526Z,28.24
2022-08-17T11:39:43.590Z,28.36
2022-08-17T11:40:43.573Z,28.46
2022-08-17T11:41:43.617Z,28.38
2022-08-17T11:42:43.701Z,28.23
2022-08-17T11:43:43.692Z,27.99
2022-08-17T11:44:43.713Z,28.06
2022-08-17T11:45:43.751Z,28.01
2022-08-17T11:46:43.779Z,27.74
2022-08-17T11:47:57.015Z,27.69
2022-08-17T11:48:43.847Z,27.89
2022-08-17T11:49:43.881Z,27.89
2022-08-17T11:50:43.917Z,27.75
2022-08-17T11:51:43.947Z,27.81
2022-08-17T11:52:46.052Z,27.80
2022-08-17T11:53:44.016Z,27.87
2022-08-17T11:54:44.052Z,28.02
2022-08-17T11:55:45.061Z,28.18
2022-08-17T11:56:44.119Z,28.46
2022-08-17T11:57:44.153Z,28.73
2022-08-17T11:58:44.186Z,28.92
2022-08-17T11:59:44.221Z,28.90
2022-08-17T12:00:44.258Z,28.98
2022-08-17T12:01:44.288Z,29.18
2022-08-17T12:02:47.875Z,29.18
2022-08-17T12:03:55.614Z,29.14
2022-08-17T12:04:44.471Z,29.24
2022-08-17T12:05:44.425Z,29.28
2022-08-17T12:06:44.461Z,29.28
2022-08-17T12:07:44.570Z,29.30
2022-08-17T12:08:44.530Z,29.05
2022-08-17T12:09:47.249Z,29.03
2022-08-17T12:10:44.595Z,28.98
2022-08-17T12:11:55.413Z,28.88
2022-08-17T12:12:44.663Z,28.65
2022-08-17T12:13:44.701Z,28.79
2022-08-17T12:15:09.107Z,28.68
2022-08-17T12:15:44.769Z,28.61
2022-08-17T12:16:44.801Z,28.68
2022-08-17T12:17:44.837Z,28.86
2022-08-17T12:18:44.869Z,28.91
2022-08-17T12:19:44.907Z,28.88
2022-08-17T12:20:44.938Z,28.83
2022-08-17T12:21:44.973Z,28.86
2022-08-17T12:22:45.004Z,28.75
2022-08-17T12:23:45.044Z,28.61
2022-08-17T12:24:45.074Z,28.46
2022-08-17T12:25:45.109Z,28.41
2022-08-17T12:26:45.147Z,28.31
2022-08-17T12:28:04.608Z,28.39
2022-08-17T12:28:45.222Z,28.24
2022-08-17T12:29:45.250Z,28.31
2022-08-17T12:30:45.277Z,28.39
2022-08-17T12:31:45.313Z,28.45
2022-08-17T12:32:45.345Z,28.55
2022-08-17T12:33:45.381Z,28.63
2022-08-17T12:34:45.411Z,28.73
2022-08-17T12:35:45.463Z,28.70
2022-08-17T12:36:45.482Z,28.88
2022-08-17T12:37:45.516Z,28.97
2022-08-17T12:38:45.547Z,28.78
2022-08-17T12:39:45.692Z,28.88
2022-08-17T12:40:45.615Z,28.72
2022-08-17T12:41:45.656Z,28.76
2022-08-17T12:42:45.682Z,28.72
2022-08-17T12:43:45.718Z,28.75
2022-08-17T12:44:49.986Z,28.60
2022-08-17T12:45:45.787Z,28.61
2022-08-17T12:46:45.818Z,28.64
2022-08-17T12:47:45.904Z,28.53
2022-08-17T12:48:59.802Z,28.45
2022-08-17T12:49:45.922Z,28.43
2022-08-17T12:50:45.962Z,28.48
2022-08-17T12:51:45.989Z,28.60
2022-08-17T12:52:46.020Z,28.63
2022-08-17T12:53:46.257Z,28.35
2022-08-17T12:54:46.087Z,28.11
2022-08-17T12:55:46.125Z,28.24
2022-08-17T12:56:46.160Z,28.27
2022-08-17T12:57:46.260Z,28.31
2022-08-17T12:58:46.220Z,28.49
2022-08-17T12:59:46.258Z,28.60
2022-08-17T13:00:47.577Z,28.72
2022-08-17T13:01:46.407Z,28.86
2022-08-17T13:02:46.355Z,28.94
2022-08-17T13:03:46.423Z,29.01
2022-08-17T13:04:46.423Z,29.06
2022-08-17T13:05:46.460Z,29.03
2022-08-17T13:06:46.489Z,28.95
2022-08-17T13:07:46.723Z,28.88
2022-08-17T13:08:46.560Z,28.92
2022-08-17T13:09:46.590Z,28.92
2022-08-17T13:10:46.624Z,28.94
2022-08-17T13:11:46.659Z,29.08
2022-08-17T13:12:46.692Z,28.98
2022-08-17T13:13:46.728Z,29.03
2022-08-17T13:14:46.761Z,29.02
2022-08-17T13:15:46.794Z,29.02
2022-08-17T13:16:46.826Z,29.05
2022-08-17T13:17:46.946Z,28.80
2022-08-17T13:18:46.892Z,28.72
2022-08-17T13:19:46.928Z,28.64
2022-08-17T13:20:46.961Z,28.49
2022-08-17T13:21:46.994Z,28.36
2022-08-17T13:22:47.028Z,28.33
2022-08-17T13:23:53.719Z,28.35
2022-08-17T13:24:47.094Z,28.42
2022-08-17T13:25:47.132Z,28.45
2022-08-17T13:26:47.162Z,28.35
2022-08-17T13:27:47.203Z,28.17
2022-08-17T13:28:47.230Z,27.90
2022-08-17T13:29:52.407Z,28.02
2022-08-17T13:30:47.314Z,27.96
2022-08-17T13:31:52.898Z,27.94
2022-08-17T13:32:47.363Z,28.08
2022-08-17T13:33:47.399Z,28.03
2022-08-17T13:35:12.090Z,28.06
2022-08-17T13:35:50.266Z,28.09
2022-08-17T13:36:47.932Z,28.20
2022-08-17T13:37:47.532Z,28.28
2022-08-17T13:38:47.569Z,28.54
2022-08-17T13:39:47.631Z,28.58
2022-08-17T13:40:47.631Z,28.63
2022-08-17T13:41:47.666Z,28.42
2022-08-17T13:42:52.086Z,28.45
2022-08-17T13:43:47.732Z,28.53
2022-08-17T13:44:47.766Z,28.36
2022-08-17T13:45:50.707Z,28.42
2022-08-17T13:46:47.842Z,28.38
2022-08-17T13:47:47.865Z,28.36
2022-08-17T13:48:47.900Z,28.42
2022-08-17T13:49:48.867Z,28.46
2022-08-17T13:50:47.965Z,28.42
2022-08-17T13:51:48.000Z,28.28
2022-08-17T13:52:51.939Z,28.08
2022-08-17T13:53:48.068Z,28.08
2022-08-17T13:54:48.098Z,28.11
2022-08-17T13:55:48.136Z,28.18
2022-08-17T13:56:48.165Z,28.14
2022-08-17T13:57:48.199Z,28.31
2022-08-17T13:58:48.234Z,28.48
2022-08-17T13:59:54.804Z,28.35
2022-08-17T14:00:48.305Z,28.36
2022-08-17T14:01:53.471Z,28.38
2022-08-17T14:02:48.367Z,28.43
2022-08-17T14:03:48.399Z,28.41
2022-08-17T14:04:48.436Z,28.53
2022-08-17T14:05:48.466Z,28.68
2022-08-17T14:06:53.385Z,28.60
2022-08-17T14:07:48.534Z,28.61
2022-08-17T14:08:48.568Z,28.60
2022-08-17T14:09:48.602Z,28.68
2022-08-17T14:10:48.635Z,28.78
2022-08-17T14:11:48.669Z,28.64
2022-08-17T14:12:48.703Z,28.45
2022-08-17T14:13:48.737Z,28.41
2022-08-17T14:14:48.771Z,28.17
2022-08-17T14:15:54.965Z,27.94
2022-08-17T14:16:48.842Z,28.06
2022-08-17T14:17:48.870Z,27.71
2022-08-17T14:18:56.253Z,27.72
2022-08-17T14:19:48.937Z,27.65
2022-08-17T14:20:48.971Z,27.81
2022-08-17T14:21:49.004Z,27.91
2022-08-17T14:22:49.042Z,27.89
2022-08-17T14:23:54.919Z,27.69
2022-08-17T14:24:49.103Z,27.86
2022-08-17T14:25:49.136Z,27.98
2022-08-17T14:26:49.174Z,27.89
2022-08-17T14:27:53.396Z,27.90
2022-08-17T14:28:54.525Z,27.94
2022-08-17T14:29:49.271Z,27.94
2022-08-17T14:30:49.303Z,27.93
2022-08-17T14:31:54.112Z,28.03
2022-08-17T14:32:49.372Z,28.06
2022-08-17T14:33:49.406Z,28.09
2022-08-17T14:34:49.438Z,28.12
2022-08-17T14:35:49.473Z,28.02
2022-08-17T14:36:49.507Z,27.87
2022-08-17T14:37:49.768Z,27.84
2022-08-17T14:38:49.570Z,27.75
2022-08-17T14:39:49.692Z,27.66
2022-08-17T14:40:49.636Z,27.55
2022-08-17T14:41:49.671Z,27.72
2022-08-17T14:42:49.703Z,27.69
2022-08-17T14:43:49.734Z,27.79
2022-08-17T14:44:49.769Z,27.74
2022-08-17T14:45:49.801Z,27.72
2022-08-17T14:46:50.155Z,27.81
2022-08-17T14:47:50.035Z,27.79
2022-08-17T14:48:53.878Z,27.89
2022-08-17T14:49:49.935Z,27.91
2022-08-17T14:50:49.970Z,27.91
2022-08-17T14:51:49.997Z,27.69
2022-08-17T14:52:50.034Z,27.84
2022-08-17T14:53:50.066Z,27.81
2022-08-17T14:54:50.099Z,27.98
2022-08-17T14:55:50.131Z,28.01
2022-08-17T14:56:51.582Z,28.11
2022-08-17T14:57:50.411Z,28.16
2022-08-17T14:58:50.233Z,28.18
2022-08-17T14:59:52.346Z,28.16
2022-08-17T15:00:50.298Z,28.17
2022-08-17T15:01:50.425Z,28.09
2022-08-17T15:02:50.366Z,28.14
2022-08-17T15:03:50.396Z,28.03
2022-08-17T15:04:50.433Z,28.08
2022-08-17T15:05:50.463Z,28.02
2022-08-17T15:06:50.498Z,28.03
2022-08-17T15:07:50.789Z,28.01
2022-08-17T15:08:50.563Z,28.12
2022-08-17T15:09:50.598Z,27.99
2022-08-17T15:10:50.629Z,28.06
2022-08-17T15:11:50.686Z,28.14
2022-08-17T15:12:50.737Z,27.96
2022-08-17T15:13:52.346Z,27.93
2022-08-17T15:14:50.762Z,27.69
2022-08-17T15:15:50.794Z,27.53
2022-08-17T15:16:50.832Z,27.53
2022-08-17T15:17:50.885Z,27.49
2022-08-17T15:18:50.896Z,27.46
2022-08-17T15:19:50.938Z,27.46
2022-08-17T15:20:50.960Z,27.61
2022-08-17T15:21:50.993Z,27.66
2022-08-17T15:22:51.026Z,27.71
2022-08-17T15:23:51.059Z,27.86
2022-08-17T15:24:51.094Z,27.87
2022-08-17T15:25:51.125Z,27.93
2022-08-17T15:26:51.160Z,27.87
2022-08-17T15:27:51.455Z,28.01
2022-08-17T15:28:54.377Z,28.01
2022-08-17T15:29:51.265Z,28.01
2022-08-17T15:30:51.293Z,28.01
2022-08-17T15:31:51.323Z,27.99
2022-08-17T15:32:54.723Z,27.96
2022-08-17T15:33:51.388Z,27.89
2022-08-17T15:34:51.424Z,27.94
2022-08-17T15:35:51.455Z,28.01
2022-08-17T15:36:51.495Z,28.08
2022-08-17T15:37:51.837Z,28.17
2022-08-17T15:38:51.555Z,28.26
2022-08-17T15:39:51.686Z,28.16
2022-08-17T15:40:51.622Z,28.01
2022-08-17T15:41:58.038Z,27.96
2022-08-17T15:42:51.782Z,27.75
2022-08-17T15:43:51.719Z,27.64
2022-08-17T15:44:51.752Z,27.55
2022-08-17T15:45:58.714Z,27.66
2022-08-17T15:46:51.819Z,27.53
2022-08-17T15:47:52.114Z,27.48
2022-08-17T15:48:51.885Z,27.48
2022-08-17T15:49:56.676Z,27.57
2022-08-17T15:50:51.963Z,27.49
2022-08-17T15:51:51.984Z,27.37
2022-08-17T15:52:52.017Z,27.38
2022-08-17T15:53:52.047Z,27.31
2022-08-17T15:54:52.080Z,27.30
2022-08-17T15:55:52.118Z,27.21
2022-08-17T15:56:52.147Z,27.18
2022-08-17T15:57:52.576Z,27.13
2022-08-17T15:58:52.214Z,27.16
2022-08-17T15:59:55.079Z,27.13
2022-08-17T16:01:03.242Z,27.11
2022-08-17T16:03:16.011Z,27.13
2022-08-17T16:03:46.978Z,27.01
2022-08-17T16:04:04.069Z,27.11
2022-08-17T16:04:52.457Z,27.04
2022-08-17T16:05:52.441Z,27.12
2022-08-17T16:06:52.474Z,27.05
2022-08-17T16:07:53.412Z,27.12
2022-08-17T16:08:52.553Z,27.16
2022-08-17T16:09:52.571Z,27.13
2022-08-17T16:10:52.617Z,27.15
2022-08-17T16:11:55.107Z,27.19
2022-08-17T16:12:52.950Z,27.19
2022-08-17T16:13:54.880Z,27.15
2022-08-17T16:14:52.733Z,27.12
2022-08-17T16:15:57.088Z,27.16
2022-08-17T16:16:52.800Z,27.12
2022-08-17T16:17:53.168Z,27.08
2022-08-17T16:18:53.590Z,27.12
2022-08-17T16:19:55.932Z,27.08
2022-08-17T16:20:52.940Z,27.11
2022-08-17T16:21:52.965Z,27.06
2022-08-17T16:22:54.157Z,27.09
2022-08-17T16:23:53.022Z,27.09
2022-08-17T16:24:57.416Z,27.13
2022-08-17T16:25:54.433Z,27.15
2022-08-17T16:26:53.122Z,27.11
2022-08-17T16:27:53.326Z,27.01
2022-08-17T16:28:53.185Z,27.08
2022-08-17T16:29:55.478Z,26.97
2022-08-17T16:30:53.250Z,26.99
2022-08-17T16:31:53.280Z,26.96
2022-08-17T16:32:53.537Z,26.99
2022-08-17T16:34:03.793Z,26.91
2022-08-17T16:34:53.378Z,26.91
2022-08-17T16:35:53.409Z,26.97
2022-08-17T16:36:56.153Z,26.90
2022-08-17T16:37:53.474Z,26.84
2022-08-17T16:38:53.509Z,26.87
2022-08-17T16:39:53.867Z,26.97
2022-08-17T16:40:53.674Z,26.89
2022-08-17T16:41:53.606Z,26.82
2022-08-17T16:42:53.723Z,26.90
2022-08-17T16:43:53.670Z,26.82
2022-08-17T16:44:53.705Z,26.87
2022-08-17T16:45:53.737Z,26.82
2022-08-17T16:46:53.778Z,26.72
2022-08-17T16:47:53.796Z,26.67
2022-08-17T16:48:53.833Z,26.69
2022-08-17T16:49:53.896Z,26.76
2022-08-17T16:51:02.913Z,26.86
2022-08-17T16:51:53.927Z,26.89
2022-08-17T16:52:53.968Z,26.82
2022-08-17T16:53:58.702Z,26.76
2022-08-17T16:54:54.023Z,26.87
2022-08-17T16:55:54.057Z,26.84
2022-08-17T16:56:54.089Z,26.82
2022-08-17T16:57:54.120Z,26.86
2022-08-17T16:58:54.152Z,26.81
2022-08-17T16:59:54.184Z,26.82
2022-08-17T17:00:54.394Z,26.81
2022-08-17T17:01:54.248Z,26.82
2022-08-17T17:02:54.281Z,26.75
2022-08-17T17:03:58.137Z,26.81
2022-08-17T17:04:54.347Z,26.81
2022-08-17T17:05:57.873Z,26.79
2022-08-17T17:06:54.409Z,26.84
2022-08-17T17:07:54.440Z,26.72
2022-08-17T17:08:54.476Z,26.74
2022-08-17T17:09:54.507Z,26.74
2022-08-17T17:10:54.539Z,26.74
2022-08-17T17:11:54.584Z,26.60
2022-08-17T17:13:03.133Z,26.63
2022-08-17T17:13:54.636Z,26.61
2022-08-17T17:14:54.667Z,26.52
2022-08-17T17:15:54.698Z,26.45
2022-08-17T17:16:54.733Z,26.44
2022-08-17T17:17:54.763Z,26.38
2022-08-17T17:18:54.796Z,26.37
2022-08-17T17:19:54.826Z,26.31
2022-08-17T17:20:54.862Z,26.30
2022-08-17T17:21:54.894Z,26.27
2022-08-17T17:22:54.923Z,26.22
2022-08-17T17:23:55.157Z,26.20
2022-08-17T17:24:54.989Z,26.20
2022-08-17T17:25:55.019Z,26.22
2022-08-17T17:26:55.052Z,26.15
2022-08-17T17:27:55.086Z,26.20
2022-08-17T17:28:55.117Z,26.23
2022-08-17T17:29:55.165Z,26.12
2022-08-17T17:30:55.191Z,26.22
2022-08-17T17:31:55.229Z,26.17
2022-08-17T17:32:55.244Z,26.07
2022-08-17T17:33:55.274Z,26.17
2022-08-17T17:34:55.326Z,26.04
2022-08-17T17:35:55.349Z,25.96
2022-08-17T17:36:55.383Z,25.97
2022-08-17T17:37:55.417Z,25.94
2022-08-17T17:38:55.437Z,25.85
2022-08-17T17:39:55.546Z,25.96
2022-08-17T17:40:55.498Z,25.93
2022-08-17T17:41:55.543Z,25.94
2022-08-17T17:42:55.561Z,25.84
2022-08-17T17:43:55.592Z,25.94
2022-08-17T17:44:55.627Z,25.89
2022-08-17T17:45:55.658Z,25.85
2022-08-17T17:46:55.690Z,25.71
2022-08-17T17:47:55.718Z,25.70
2022-08-17T17:48:55.753Z,25.78
2022-08-17T17:49:55.784Z,25.70
2022-08-17T17:50:55.812Z,25.66
2022-08-17T17:52:11.020Z,25.52
2022-08-17T17:52:55.877Z,25.51
2022-08-17T17:53:55.907Z,25.52
2022-08-17T17:54:55.938Z,25.54
2022-08-17T17:55:55.972Z,25.47
2022-08-17T17:56:56.007Z,25.52
2022-08-17T17:57:56.037Z,25.51
2022-08-17T17:58:56.068Z,25.41
2022-08-17T17:59:56.095Z,25.41
2022-08-17T18:00:56.144Z,25.44
2022-08-17T18:01:56.214Z,25.39
2022-08-17T18:02:56.192Z,25.45
2022-08-17T18:03:56.239Z,25.33
2022-08-17T18:04:56.254Z,25.42
2022-08-17T18:05:56.288Z,25.30
2022-08-17T18:06:56.317Z,25.30
2022-08-17T18:07:56.346Z,25.30
2022-08-17T18:08:56.382Z,25.23
2022-08-17T18:10:01.077Z,25.19
2022-08-17T18:10:56.443Z,25.23
2022-08-17T18:11:59.054Z,25.08
2022-08-17T18:12:56.512Z,25.09
2022-08-17T18:13:56.537Z,25.09
2022-08-17T18:14:56.566Z,25.14
2022-08-17T18:15:56.602Z,25.11
2022-08-17T18:16:56.631Z,25.07
2022-08-17T18:17:56.662Z,25.11
2022-08-17T18:18:56.693Z,24.97
2022-08-17T18:19:56.725Z,25.01
2022-08-17T18:20:56.765Z,25.01
2022-08-17T18:21:56.787Z,24.89
2022-08-17T18:22:56.817Z,24.92
2022-08-17T18:23:57.052Z,25.01
2022-08-17T18:24:56.879Z,24.92
2022-08-17T18:25:56.914Z,24.90
2022-08-17T18:26:56.941Z,24.90
2022-08-17T18:27:56.975Z,24.87
2022-08-17T18:28:57.005Z,24.90
2022-08-17T18:29:57.039Z,24.71
2022-08-17T18:30:57.067Z,24.74
2022-08-17T18:31:57.098Z,24.74
2022-08-17T18:32:57.131Z,24.67
2022-08-17T18:33:57.164Z,24.69
2022-08-17T18:34:57.194Z,24.55
2022-08-17T18:35:58.468Z,24.58
2022-08-17T18:36:57.255Z,24.58
2022-08-17T18:37:57.290Z,24.49
2022-08-17T18:38:57.318Z,24.44
2022-08-17T18:39:57.487Z,24.34
2022-08-17T18:40:57.379Z,24.32
2022-08-17T18:41:57.413Z,24.32
2022-08-17T18:42:57.519Z,24.45
2022-08-17T18:43:57.475Z,24.39
2022-08-17T18:44:57.507Z,24.39
2022-08-17T18:45:57.743Z,24.24
2022-08-17T18:46:57.569Z,24.26
2022-08-17T18:47:57.601Z,24.32
2022-08-17T18:48:58.871Z,24.26
2022-08-17T18:49:57.671Z,24.24
2022-08-17T18:50:57.692Z,24.19
2022-08-17T18:51:57.928Z,24.24
2022-08-17T18:52:57.754Z,24.26
2022-08-17T18:53:57.788Z,24.12
2022-08-17T18:54:57.818Z,24.15
2022-08-17T18:55:57.849Z,24.14
2022-08-17T18:56:57.878Z,24.14
2022-08-17T18:57:57.911Z,24.17
2022-08-17T18:58:57.941Z,24.03
2022-08-17T18:59:57.973Z,24.09
2022-08-17T19:00:58.004Z,24.08
2022-08-17T19:01:59.891Z,23.99
2022-08-17T19:02:58.126Z,23.97
2022-08-17T19:03:58.100Z,24.00
2022-08-17T19:04:58.132Z,24.00
2022-08-17T19:05:58.160Z,23.96
2022-08-17T19:06:58.188Z,23.89
2022-08-17T19:07:58.222Z,23.79
2022-08-17T19:08:58.251Z,23.87
2022-08-17T19:09:58.284Z,23.77
2022-08-17T19:10:58.314Z,23.75
2022-08-17T19:11:58.344Z,23.72
2022-08-17T19:13:00.322Z,23.66
2022-08-17T19:13:58.409Z,23.66
2022-08-17T19:14:58.438Z,23.64
2022-08-17T19:16:11.780Z,23.63
2022-08-17T19:16:58.497Z,23.59
2022-08-17T19:17:58.531Z,23.57
2022-08-17T19:18:58.559Z,23.56
2022-08-17T19:19:58.598Z,23.55
2022-08-17T19:20:58.622Z,23.47
2022-08-17T19:21:58.655Z,23.44
2022-08-17T19:22:58.684Z,23.34
2022-08-17T19:23:58.723Z,23.26
2022-08-17T19:25:03.521Z,23.35
2022-08-17T19:25:58.779Z,23.28
2022-08-17T19:26:58.806Z,23.25
2022-08-17T19:27:58.991Z,23.25
2022-08-17T19:28:58.868Z,23.25
2022-08-17T19:30:01.637Z,23.28
2022-08-17T19:30:58.929Z,23.29
2022-08-17T19:31:58.968Z,23.26
2022-08-17T19:32:58.992Z,23.32
2022-08-17T19:33:59.026Z,23.42
2022-08-17T19:34:59.052Z,23.41
2022-08-17T19:35:59.087Z,23.34
2022-08-17T19:36:59.114Z,23.40
2022-08-17T19:37:59.146Z,23.34
2022-08-17T19:38:59.177Z,23.35
2022-08-17T19:39:59.309Z,23.29
2022-08-17T19:40:59.289Z,23.37
2022-08-17T19:41:59.270Z,23.29
2022-08-17T19:42:59.298Z,23.29
2022-08-17T19:43:59.331Z,23.32
2022-08-17T19:44:59.360Z,23.28
2022-08-17T19:45:59.553Z,23.29
2022-08-17T19:47:00.856Z,23.32
2022-08-17T19:48:02.866Z,23.29
2022-08-17T19:48:59.483Z,23.32
2022-08-17T19:49:59.516Z,23.22
2022-08-17T19:50:59.551Z,23.21
2022-08-17T19:51:59.595Z,23.21
2022-08-17T19:52:59.609Z,23.18
2022-08-17T19:54:05.760Z,23.21
2022-08-17T19:54:59.670Z,23.18
2022-08-17T19:55:59.704Z,23.16
2022-08-17T19:57:01.671Z,23.12
2022-08-17T19:57:59.764Z,23.10
2022-08-17T19:58:59.790Z,23.04
2022-08-17T19:59:59.829Z,22.97
2022-08-17T20:00:59.916Z,23.03